createdAt,value
2023-11-01T10:05:21.395Z,16.75
2023-11-01T10:07:48.610Z,16.45
2023-11-01T10:10:18.412Z,16.07
2023-11-01T10:12:49.332Z,15.77
2023-11-01T10:15:21.565Z,15.30
2023-11-01T10:17:49.823Z,15.19
2023-11-01T10:20:25.107Z,15.06
2023-11-01T10:22:57.696Z,15.15
2023-11-01T10:25:26.824Z,15.09
2023-11-01T10:27:58.488Z,15.14
2023-11-01T10:30:26.540Z,15.20
2023-11-01T10:32:59.779Z,15.23
2023-11-01T10:35:30.420Z,15.27
2023-11-01T10:38:01.902Z,15.20
2023-11-01T10:40:30.626Z,15.17
2023-11-01T10:43:05.222Z,15.34
2023-11-01T10:45:33.867Z,15.30
2023-11-01T10:48:04.658Z,15.26
2023-11-01T10:50:37.990Z,15.42
2023-11-01T10:53:06.143Z,15.45
2023-11-01T10:55:33.481Z,15.51
2023-11-01T10:58:01.179Z,15.62
2023-11-01T11:00:39.978Z,15.68
2023-11-01T11:03:28.998Z,15.80
2023-11-01T11:06:05.371Z,15.73
2023-11-01T11:08:33.053Z,15.21
2023-11-01T11:11:20.140Z,15.83
2023-11-01T11:13:52.488Z,15.76
2023-11-01T11:16:22.176Z,15.92
2023-11-01T11:19:10.248Z,15.96
2023-11-01T11:21:46.385Z,15.87
2023-11-01T11:24:40.457Z,15.85
2023-11-01T11:27:29.252Z,15.84
2023-11-01T11:29:56.526Z,15.61
2023-11-01T11:32:24.039Z,15.64
2023-11-01T11:34:51.419Z,15.64
2023-11-01T11:37:29.941Z,15.63
2023-11-01T11:40:08.453Z,15.59
2023-11-01T11:42:52.110Z,15.49
2023-11-01T11:45:30.394Z,15.68
2023-11-01T11:48:00.400Z,15.59
2023-11-01T11:50:29.673Z,15.56
2023-11-01T11:52:57.472Z,15.25
2023-11-01T11:55:47.427Z,15.61
2023-11-01T11:58:14.789Z,15.35
2023-11-01T12:00:46.966Z,15.52
2023-11-01T12:03:25.311Z,15.73
2023-11-01T12:05:58.625Z,15.79
2023-11-01T12:08:39.568Z,15.78
2023-11-01T12:11:06.966Z,15.90
2023-11-01T12:14:00.497Z,15.98
2023-11-01T12:16:29.946Z,16.10
2023-11-01T12:19:19.867Z,16.18
2023-11-01T12:21:49.552Z,15.94
2023-11-01T12:24:19.774Z,16.31
2023-11-01T12:27:05.596Z,16.42
2023-11-01T12:29:43.274Z,16.45
2023-11-01T12:32:27.778Z,16.53
2023-11-01T12:34:54.873Z,16.69
2023-11-01T12:37:28.000Z,16.79
2023-11-01T12:40:13.801Z,16.84
2023-11-01T12:43:06.079Z,16.87
2023-11-01T12:45:34.062Z,16.68
2023-11-01T12:48:01.722Z,16.95
2023-11-01T12:50:37.863Z,16.98
2023-11-01T12:53:05.122Z,17.04
2023-11-01T12:55:38.101Z,17.08
2023-11-01T12:58:08.704Z,17.10
2023-11-01T13:00:35.997Z,17.23
2023-11-01T13:03:03.989Z,17.24
2023-11-01T13:05:34.830Z,17.48
2023-11-01T13:08:06.111Z,17.41
2023-11-01T13:10:40.104Z,17.46
2023-11-01T13:13:13.021Z,17.14
2023-11-01T13:15:40.306Z,17.35
2023-11-01T13:18:07.562Z,17.23
2023-11-01T13:20:35.179Z,17.24
2023-11-01T13:23:02.972Z,17.36
2023-11-01T13:25:30.080Z,17.39
2023-11-01T13:27:57.252Z,17.29
2023-11-01T13:30:24.635Z,17.75
2023-11-01T13:32:51.781Z,17.94
2023-11-01T13:35:18.875Z,18.30
2023-11-01T13:37:49.340Z,18.68
2023-11-01T13:40:16.606Z,18.93
2023-11-01T13:42:44.016Z,19.15
2023-11-01T13:45:11.571Z,19.17
2023-11-01T13:47:39.417Z,19.17
2023-11-01T13:50:10.543Z,19.22
2023-11-01T13:52:38.796Z,19.26
2023-11-01T13:55:06.283Z,19.02
2023-11-01T13:57:33.770Z,18.97
2023-11-01T14:00:01.183Z,18.76
2023-11-01T14:02:28.433Z,18.59
2023-11-01T14:04:55.506Z,18.54
2023-11-01T14:07:28.323Z,18.34
2023-11-01T14:09:55.963Z,18.10
2023-11-01T14:12:23.200Z,18.02
2023-11-01T14:14:50.309Z,17.57
2023-11-01T14:17:17.773Z,17.67
2023-11-01T14:19:48.065Z,17.79
2023-11-01T14:22:15.651Z,17.27
2023-11-01T14:24:46.296Z,17.42
2023-11-01T14:27:14.078Z,17.29
2023-11-01T14:29:41.277Z,17.17
2023-11-01T14:32:08.936Z,17.04
2023-11-01T14:34:36.113Z,16.83
2023-11-01T14:37:06.084Z,16.86
2023-11-01T14:39:34.885Z,16.75
2023-11-01T14:42:02.632Z,16.75
2023-11-01T14:44:30.650Z,16.65
2023-11-01T14:46:58.016Z,16.58
2023-11-01T14:49:25.077Z,16.47
2023-11-01T14:51:52.316Z,16.30
2023-11-01T14:54:20.701Z,16.38
2023-11-01T14:56:47.919Z,16.28
2023-11-01T14:59:17.574Z,16.25
2023-11-01T15:01:49.390Z,15.90
2023-11-01T15:04:16.855Z,16.20
2023-11-01T15:06:45.301Z,16.16
2023-11-01T15:09:14.157Z,16.11
2023-11-01T15:11:45.693Z,16.04
2023-11-01T15:14:12.893Z,16.08
2023-11-01T15:16:40.282Z,16.01
2023-11-01T15:19:07.473Z,15.68
2023-11-01T15:21:35.576Z,15.87
2023-11-01T15:24:04.525Z,15.82
2023-11-01T15:26:35.559Z,15.77
2023-11-01T15:29:04.418Z,15.65
2023-11-01T15:31:32.389Z,15.39
2023-11-01T15:34:00.189Z,15.50
2023-11-01T15:36:28.054Z,15.59
2023-11-01T15:38:55.426Z,15.59
2023-11-01T15:41:23.070Z,15.37
2023-11-01T15:43:50.583Z,15.54
2023-11-01T15:46:18.114Z,15.50
2023-11-01T15:48:46.052Z,15.47
2023-11-01T15:51:13.783Z,15.31
2023-11-01T15:53:41.992Z,15.44
2023-11-01T15:56:11.316Z,15.43
2023-11-01T15:58:41.480Z,15.36
2023-11-01T16:01:09.128Z,15.13
2023-11-01T16:03:36.560Z,15.23
2023-11-01T16:06:05.172Z,15.15
2023-11-01T16:08:32.749Z,15.06
2023-11-01T16:11:00.494Z,15.07
2023-11-01T16:13:28.594Z,15.02
2023-11-01T16:15:56.591Z,14.89
2023-11-01T16:18:23.744Z,14.97
2023-11-01T16:20:50.960Z,14.97
2023-11-01T16:23:18.015Z,14.56
2023-11-01T16:25:45.977Z,14.90
2023-11-01T16:28:13.429Z,14.86
2023-11-01T16:30:40.614Z,14.84
2023-11-01T16:33:07.960Z,14.82
2023-11-01T16:35:35.581Z,14.69
2023-11-01T16:38:02.758Z,14.35
2023-11-01T16:40:30.017Z,14.78
2023-11-01T16:42:57.422Z,14.72
2023-11-01T16:45:25.345Z,14.60
2023-11-01T16:47:53.001Z,14.49
2023-11-01T16:50:20.208Z,14.64
2023-11-01T16:52:47.525Z,14.63
2023-11-01T16:55:15.145Z,14.59
2023-11-01T16:57:42.936Z,14.51
2023-11-01T17:00:11.659Z,14.42
2023-11-01T17:02:47.787Z,14.36
2023-11-01T17:05:17.835Z,14.38
2023-11-01T17:07:44.962Z,14.23
2023-11-01T17:10:12.535Z,14.13
2023-11-01T17:12:40.116Z,14.43
2023-11-01T17:15:07.889Z,14.20
2023-11-01T17:17:37.452Z,14.34
2023-11-01T17:20:06.646Z,14.32
2023-11-01T17:22:46.069Z,14.35
2023-11-01T17:25:45.265Z,14.33
2023-11-01T17:28:38.364Z,14.24
2023-11-01T17:31:13.158Z,14.22
2023-11-01T17:33:44.067Z,14.14
2023-11-01T17:36:24.131Z,14.03
2023-11-01T17:38:55.818Z,14.13
2023-11-01T17:41:53.989Z,13.64
2023-11-01T17:44:32.206Z,12.70
2023-11-01T17:47:14.097Z,12.25
2023-11-01T17:49:48.762Z,12.13
2023-11-01T17:52:44.029Z,12.13
2023-11-01T17:55:17.896Z,11.93
2023-11-01T17:57:48.622Z,11.90
2023-11-01T18:00:20.865Z,11.86
2023-11-01T18:02:54.324Z,11.84
2023-11-01T18:05:44.842Z,11.74
2023-11-01T18:08:17.525Z,11.43
2023-11-01T18:10:56.638Z,11.72
2023-11-01T18:13:26.159Z,11.67
2023-11-01T18:16:00.344Z,11.64
2023-11-01T18:19:00.239Z,11.64
2023-11-01T18:21:32.776Z,11.62
2023-11-01T18:24:08.751Z,11.58
2023-11-01T18:26:36.037Z,11.51
2023-11-01T18:29:07.841Z,11.55
2023-11-01T18:31:45.080Z,11.37
2023-11-01T18:34:14.732Z,11.34
2023-11-01T18:36:51.236Z,11.33
2023-11-01T18:39:26.015Z,11.46
2023-11-01T18:41:56.868Z,11.49
2023-11-01T18:44:46.983Z,11.44
2023-11-01T18:47:24.320Z,11.49
2023-11-01T18:50:20.105Z,11.51
2023-11-01T18:53:10.136Z,11.38
2023-11-01T18:55:38.646Z,11.47
2023-11-01T18:58:06.286Z,11.33
2023-11-01T19:00:52.993Z,11.24
2023-11-01T19:06:26.587Z,11.19
2023-11-01T19:08:56.616Z,11.34
2023-11-01T19:11:26.929Z,11.27
2023-11-01T19:13:58.972Z,11.34
2023-11-01T19:16:31.797Z,11.21
2023-11-01T19:18:59.623Z,11.31
2023-11-01T19:21:30.167Z,11.01
2023-11-01T19:24:02.572Z,11.28
2023-11-01T19:26:35.780Z,11.29
2023-11-01T19:29:03.870Z,10.90
2023-11-01T19:31:50.086Z,11.06
2023-11-01T19:34:21.928Z,11.26
2023-11-01T19:40:36.137Z,11.34
2023-11-01T19:43:07.635Z,11.31
2023-11-01T19:45:41.701Z,11.38
2023-11-01T19:48:42.638Z,11.25
2023-11-01T19:51:30.895Z,11.21
2023-11-01T19:53:58.427Z,11.18
2023-11-01T19:56:27.206Z,10.90
2023-11-01T19:58:54.496Z,11.01
2023-11-01T20:04:51.289Z,11.03
2023-11-01T20:15:44.326Z,10.88
2023-11-01T20:18:11.779Z,10.78
2023-11-01T20:20:47.906Z,10.68
2023-11-01T20:23:15.654Z,10.82
2023-11-01T20:25:44.599Z,10.81
2023-11-01T20:28:28.741Z,10.63
2023-11-01T20:31:03.776Z,10.70
2023-11-01T20:33:39.550Z,10.58
2023-11-01T20:36:16.104Z,10.57
2023-11-01T20:38:53.355Z,10.74
2023-11-01T20:41:25.885Z,10.62
2023-11-01T20:43:53.147Z,10.69
2023-11-01T20:46:20.751Z,10.41
2023-11-01T20:48:48.347Z,10.30
2023-11-01T20:51:21.994Z,10.26
2023-11-01T20:53:52.702Z,9.98
2023-11-01T20:56:23.760Z,10.54
2023-11-01T20:58:54.377Z,10.57
2023-11-01T21:01:27.451Z,10.53
2023-11-01T21:04:13.459Z,10.52
2023-11-01T21:06:55.602Z,10.54
2023-11-01T21:09:36.348Z,10.35
2023-11-01T21:12:06.032Z,10.43
2023-11-01T21:14:37.764Z,10.05
2023-11-01T21:17:07.571Z,10.21
2023-11-01T21:19:35.350Z,10.54
2023-11-01T21:22:02.961Z,10.39
2023-11-01T21:24:30.721Z,10.13
2023-11-01T21:27:05.169Z,10.13
2023-11-01T21:29:41.736Z,10.39
2023-11-01T21:32:11.252Z,10.14
2023-11-01T21:34:38.555Z,9.82
2023-11-01T21:37:05.834Z,9.87
2023-11-01T21:39:34.279Z,10.47
2023-11-01T21:42:03.478Z,10.30
2023-11-01T21:44:39.418Z,10.31
2023-11-01T21:47:13.169Z,10.30
2023-11-01T21:49:41.553Z,10.20
2023-11-01T21:52:23.799Z,10.26
2023-11-01T21:54:53.374Z,10.34
2023-11-01T21:57:31.627Z,9.88
2023-11-01T22:00:10.276Z,9.92
2023-11-01T22:02:51.475Z,10.36
2023-11-01T22:05:19.956Z,9.76
2023-11-01T22:07:47.953Z,9.86
2023-11-01T22:10:17.823Z,9.84
2023-11-01T22:12:50.807Z,9.54
2023-11-01T22:15:21.005Z,10.10
2023-11-01T22:17:48.551Z,9.88
2023-11-01T22:20:23.347Z,10.02
2023-11-01T22:23:01.416Z,10.08
2023-11-01T22:25:40.841Z,9.83
2023-11-01T22:28:12.350Z,9.72
2023-11-01T22:30:39.504Z,9.97
2023-11-01T22:33:12.393Z,9.96
2023-11-01T22:35:47.488Z,9.98
2023-11-01T22:38:17.360Z,10.03
2023-11-01T22:40:47.845Z,9.47
2023-11-01T22:43:16.701Z,9.67
2023-11-01T22:45:44.798Z,9.46
2023-11-01T22:48:13.354Z,9.85
2023-11-01T22:50:40.609Z,9.77
2023-11-01T22:53:10.451Z,9.67
2023-11-01T22:55:41.486Z,9.83
2023-11-01T22:58:11.033Z,9.47
2023-11-01T23:00:38.293Z,9.22
2023-11-01T23:03:06.249Z,9.85
2023-11-01T23:05:34.956Z,9.88
2023-11-01T23:08:02.938Z,9.71
2023-11-01T23:10:32.353Z,9.84
2023-11-01T23:13:01.246Z,9.59
2023-11-01T23:15:28.710Z,9.29
2023-11-01T23:17:57.820Z,9.59
2023-11-01T23:20:25.244Z,9.21
2023-11-01T23:22:53.756Z,9.12
2023-11-01T23:25:32.331Z,9.66
2023-11-01T23:28:22.056Z,9.56
2023-11-01T23:30:54.760Z,9.00
2023-11-01T23:33:38.163Z,9.50
2023-11-01T23:36:13.809Z,9.38
2023-11-01T23:38:48.491Z,9.48
2023-11-01T23:41:27.740Z,9.60
2023-11-01T23:44:02.407Z,9.09
2023-11-01T23:46:29.759Z,9.14
2023-11-01T23:48:59.184Z,9.47
2023-11-01T23:51:58.870Z,9.44
2023-11-01T23:54:28.178Z,8.80
2023-11-01T23:56:55.303Z,9.32
2023-11-01T23:59:22.921Z,9.33
